createdAt,value
2023-03-04T00:01:38.567Z,3.22
2023-03-04T00:04:05.861Z,3.30
2023-03-04T00:06:33.033Z,3.13
2023-03-04T00:09:00.244Z,2.70
2023-03-04T00:11:27.579Z,3.00
2023-03-04T00:13:54.837Z,3.08
2023-03-04T00:16:22.061Z,2.85
2023-03-04T00:18:49.243Z,3.38
2023-03-04T00:21:16.471Z,2.83
2023-03-04T00:23:43.729Z,2.30
2023-03-04T00:26:10.910Z,2.95
2023-03-04T00:28:39.829Z,3.33
2023-03-04T00:31:07.498Z,2.70
2023-03-04T00:33:35.260Z,2.50
2023-03-04T00:36:04.474Z,2.00
2023-03-04T00:38:31.710Z,2.85
2023-03-04T00:40:58.917Z,2.80
2023-03-04T00:43:26.133Z,2.90
2023-03-04T00:45:53.434Z,3.13
2023-03-04T00:48:20.622Z,2.70
2023-03-04T00:50:48.945Z,2.80
2023-03-04T00:53:16.132Z,2.88
2023-03-04T00:55:43.921Z,3.00
2023-03-04T00:58:11.347Z,3.38
2023-03-04T01:00:38.678Z,2.80
2023-03-04T01:03:05.931Z,2.88
2023-03-04T01:05:35.858Z,3.03
2023-03-04T01:08:03.340Z,3.42
2023-03-04T01:10:30.551Z,2.80
2023-03-04T01:12:57.814Z,3.10
2023-03-04T01:15:24.617Z,2.95
2023-03-04T01:17:51.799Z,3.17
2023-03-04T01:20:19.037Z,2.88
2023-03-04T01:22:46.240Z,2.72
2023-03-04T01:25:14.638Z,3.08
2023-03-04T01:27:41.915Z,2.90
2023-03-04T01:30:09.606Z,2.30
2023-03-04T01:32:36.983Z,2.85
2023-03-04T01:35:04.274Z,2.85
2023-03-04T01:37:31.453Z,2.40
2023-03-04T01:39:58.609Z,2.33
2023-03-04T01:42:27.026Z,2.28
2023-03-04T01:44:54.506Z,2.70
2023-03-04T01:47:30.381Z,2.80
2023-03-04T01:49:58.420Z,2.67
2023-03-04T01:52:26.618Z,3.28
2023-03-04T01:54:54.015Z,2.63
2023-03-04T01:57:22.856Z,2.47
2023-03-04T02:00:10.447Z,3.05
2023-03-04T02:02:41.193Z,2.80
2023-03-04T02:05:08.478Z,3.10
2023-03-04T02:07:35.725Z,2.35
2023-03-04T02:10:02.922Z,3.35
2023-03-04T02:12:30.138Z,2.83
2023-03-04T02:14:57.405Z,3.47
2023-03-04T02:17:27.737Z,2.60
2023-03-04T02:20:13.596Z,2.35
2023-03-04T02:22:43.994Z,2.63
2023-03-04T02:25:13.866Z,2.72
2023-03-04T02:27:41.095Z,2.92
2023-03-04T02:30:08.661Z,3.28
2023-03-04T02:32:35.969Z,2.58
2023-03-04T02:35:03.222Z,2.30
2023-03-04T02:37:30.444Z,2.55
2023-03-04T02:39:57.711Z,2.28
2023-03-04T02:42:25.352Z,2.17
2023-03-04T02:45:00.467Z,2.58
2023-03-04T02:47:27.844Z,2.40
2023-03-04T02:49:55.927Z,2.35
2023-03-04T02:52:24.301Z,2.50
2023-03-04T02:54:51.673Z,3.22
2023-03-04T02:57:19.276Z,2.00
2023-03-04T02:59:51.379Z,2.53
2023-03-04T03:02:22.187Z,2.75
2023-03-04T03:04:49.394Z,2.90
2023-03-04T03:07:19.845Z,2.95
2023-03-04T03:09:47.198Z,2.20
2023-03-04T03:12:14.459Z,3.30
2023-03-04T03:14:41.752Z,3.03
2023-03-04T03:17:11.507Z,2.70
2023-03-04T03:19:38.737Z,2.50
2023-03-04T03:22:07.577Z,2.10
2023-03-04T03:24:35.038Z,2.90
2023-03-04T03:27:02.732Z,2.38
2023-03-04T03:29:30.671Z,2.83
2023-03-04T03:31:57.918Z,2.30
2023-03-04T03:34:25.170Z,1.88
2023-03-04T03:36:52.627Z,1.98
2023-03-04T03:39:20.711Z,2.35
2023-03-04T03:41:48.195Z,2.47
2023-03-04T03:44:15.355Z,2.28
2023-03-04T03:46:44.161Z,2.88
2023-03-04T03:49:11.336Z,2.50
2023-03-04T03:51:38.550Z,2.50
2023-03-04T03:54:05.744Z,1.95
2023-03-04T03:56:32.973Z,2.08
2023-03-04T03:59:00.041Z,1.63
2023-03-04T04:01:27.359Z,2.40
2023-03-04T04:03:54.463Z,1.30
2023-03-04T04:06:21.671Z,2.55
2023-03-04T04:08:48.767Z,1.80
2023-03-04T04:11:15.952Z,2.30
2023-03-04T04:13:43.164Z,2.17
2023-03-04T04:16:11.029Z,2.30
2023-03-04T04:18:38.473Z,2.28
2023-03-04T04:21:05.829Z,1.58
2023-03-04T04:23:33.066Z,2.83
2023-03-04T04:26:00.287Z,2.22
2023-03-04T04:28:27.432Z,1.80
2023-03-04T04:30:54.654Z,2.17
2023-03-04T04:33:22.140Z,1.50
2023-03-04T04:35:49.306Z,1.67
2023-03-04T04:38:16.547Z,2.15
2023-03-04T04:40:43.661Z,1.27
2023-03-04T04:43:10.840Z,2.50
2023-03-04T04:45:38.199Z,1.33
2023-03-04T04:48:05.460Z,1.90
2023-03-04T04:50:33.135Z,2.45
2023-03-04T04:53:00.517Z,1.63
2023-03-04T04:55:28.258Z,2.13
2023-03-04T04:57:55.458Z,2.30
2023-03-04T05:00:22.827Z,2.30
2023-03-04T05:02:50.203Z,2.25
2023-03-04T05:05:17.646Z,2.17
2023-03-04T05:07:44.883Z,1.85
2023-03-04T05:10:12.169Z,2.20
2023-03-04T05:12:39.376Z,2.40
2023-03-04T05:15:06.715Z,2.22
2023-03-04T05:17:33.950Z,2.25
2023-03-04T05:20:01.150Z,2.13
2023-03-04T05:22:28.286Z,2.15
2023-03-04T05:24:56.065Z,2.22
2023-03-04T05:27:23.181Z,2.40
2023-03-04T05:29:50.526Z,2.10
2023-03-04T05:32:17.777Z,3.53
2023-03-04T05:34:45.108Z,2.42
2023-03-04T05:37:12.220Z,2.38
2023-03-04T05:39:39.364Z,2.53
2023-03-04T05:42:06.600Z,2.40
2023-03-04T05:44:33.828Z,2.10
2023-03-04T05:47:01.015Z,2.67
2023-03-04T05:49:28.179Z,2.65
2023-03-04T05:51:55.313Z,2.00
2023-03-04T05:54:22.427Z,2.38
2023-03-04T05:56:49.567Z,2.28
2023-03-04T05:59:20.450Z,2.10
2023-03-04T06:01:48.038Z,2.17
2023-03-04T06:04:15.422Z,2.40
2023-03-04T06:06:42.700Z,2.33
2023-03-04T06:09:11.290Z,2.67
2023-03-04T06:11:38.435Z,2.63
2023-03-04T06:14:05.724Z,2.00
2023-03-04T06:16:33.151Z,2.80
2023-03-04T06:19:00.321Z,2.13
2023-03-04T06:21:27.682Z,2.03
2023-03-04T06:23:54.889Z,2.90
2023-03-04T06:26:22.230Z,2.42
2023-03-04T06:28:49.406Z,2.70
2023-03-04T06:31:16.749Z,2.65
2023-03-04T06:33:43.943Z,2.38
2023-03-04T06:36:11.212Z,2.28
2023-03-04T06:38:38.365Z,2.80
2023-03-04T06:41:09.986Z,2.38
2023-03-04T06:43:37.577Z,2.42
2023-03-04T06:46:05.274Z,2.45
2023-03-04T06:48:32.699Z,2.50
2023-03-04T06:50:59.960Z,2.50
2023-03-04T06:53:27.137Z,2.13
2023-03-04T06:55:54.336Z,2.10
2023-03-04T06:58:21.510Z,2.47
2023-03-04T07:00:48.795Z,2.70
2023-03-04T07:03:15.963Z,2.55
2023-03-04T07:05:44.092Z,2.53
2023-03-04T07:08:11.661Z,2.28
2023-03-04T07:10:38.843Z,2.20
2023-03-04T07:13:06.087Z,2.60
2023-03-04T07:15:40.017Z,1.75
2023-03-04T07:18:08.687Z,1.80
2023-03-04T07:20:35.881Z,1.70
2023-03-04T07:23:03.078Z,1.80
2023-03-04T07:25:30.330Z,1.45
2023-03-04T07:27:57.628Z,1.50
2023-03-04T07:30:24.802Z,1.42
2023-03-04T07:32:52.054Z,1.45
2023-03-04T07:35:19.400Z,1.77
2023-03-04T07:37:46.665Z,1.77
2023-03-04T07:40:13.993Z,1.65
2023-03-04T07:42:41.148Z,1.58
2023-03-04T07:45:12.478Z,2.22
2023-03-04T07:47:41.342Z,1.90
2023-03-04T07:50:08.843Z,1.70
2023-03-04T07:52:38.707Z,1.50
2023-03-04T07:55:06.120Z,1.92
2023-03-04T07:57:34.520Z,1.33
2023-03-04T08:00:01.853Z,1.70
2023-03-04T08:02:29.376Z,1.45
2023-03-04T08:04:56.726Z,1.85
2023-03-04T08:07:24.245Z,1.30
2023-03-04T08:09:51.458Z,1.75
2023-03-04T08:12:19.183Z,1.70
2023-03-04T08:14:46.589Z,1.15
2023-03-04T08:17:15.476Z,1.17
2023-03-04T08:19:42.957Z,1.73
2023-03-04T08:22:10.169Z,1.50
2023-03-04T08:24:40.593Z,1.30
2023-03-04T08:27:09.201Z,1.48
2023-03-04T08:29:36.519Z,1.45
2023-03-04T08:32:04.133Z,0.93
2023-03-04T08:34:31.593Z,1.13
2023-03-04T08:36:59.027Z,1.70
2023-03-04T08:39:26.632Z,1.20
2023-03-04T08:41:53.841Z,1.25
2023-03-04T08:44:21.241Z,1.00
2023-03-04T08:46:49.559Z,1.58
2023-03-04T08:49:16.873Z,1.15
2023-03-04T08:51:45.308Z,1.23
2023-03-04T08:54:12.957Z,1.00
2023-03-04T08:56:41.356Z,2.13
2023-03-04T08:59:08.553Z,1.40
2023-03-04T09:01:35.758Z,1.17
2023-03-04T09:04:03.010Z,1.00
2023-03-04T09:06:30.231Z,1.50
2023-03-04T09:08:57.533Z,1.33
2023-03-04T09:11:24.902Z,1.10
2023-03-04T09:13:53.536Z,1.23
2023-03-04T09:16:20.816Z,1.02
2023-03-04T09:18:48.030Z,1.10
2023-03-04T09:21:15.525Z,1.30
2023-03-04T09:23:42.724Z,1.10
2023-03-04T09:26:23.415Z,1.10
2023-03-04T09:28:54.634Z,1.35
2023-03-04T09:31:22.266Z,1.42
2023-03-04T09:33:51.824Z,3.13
2023-03-04T09:36:19.220Z,2.08
2023-03-04T09:38:46.846Z,1.10
2023-03-04T09:41:22.715Z,1.10
2023-03-04T09:43:51.230Z,1.00
2023-03-04T09:46:24.136Z,1.10
2023-03-04T09:48:52.515Z,1.10
2023-03-04T09:51:42.207Z,1.10
2023-03-04T09:54:28.366Z,1.65
2023-03-04T09:56:59.751Z,1.13
2023-03-04T09:59:26.921Z,1.67
2023-03-04T10:02:13.665Z,1.27
2023-03-04T10:04:40.965Z,1.00
2023-03-04T10:07:14.919Z,1.08
2023-03-04T10:09:50.525Z,1.30
2023-03-04T10:12:25.733Z,1.02
2023-03-04T10:15:02.646Z,1.05
2023-03-04T10:17:40.117Z,0.90
2023-03-04T10:20:07.551Z,1.55
2023-03-04T10:22:42.917Z,1.00
2023-03-04T10:25:29.026Z,1.35
2023-03-04T10:28:17.514Z,1.00
2023-03-04T10:33:22.685Z,0.90
2023-03-04T10:36:04.857Z,0.93
2023-03-04T10:38:39.287Z,0.93
2023-03-04T10:41:26.121Z,1.02
2023-03-04T10:44:14.770Z,1.15
2023-03-04T10:49:15.123Z,0.80
2023-03-04T10:51:49.458Z,0.98
2023-03-04T10:54:32.233Z,0.82
2023-03-04T10:57:15.370Z,0.60
2023-03-04T10:59:57.595Z,0.73
2023-03-04T11:02:30.523Z,1.20
2023-03-04T11:05:09.342Z,0.80
2023-03-04T11:07:55.723Z,0.88
2023-03-04T11:10:37.005Z,0.93
2023-03-04T11:13:25.087Z,0.88
2023-03-04T11:15:57.634Z,1.17
2023-03-04T11:18:44.753Z,1.00
2023-03-04T11:21:24.286Z,0.90
2023-03-04T11:23:56.793Z,0.80
2023-03-04T11:26:38.366Z,0.85
2023-03-04T11:29:11.665Z,0.70
2023-03-04T11:32:02.338Z,0.85
2023-03-04T11:34:48.742Z,1.15
2023-03-04T11:37:24.473Z,1.35
2023-03-04T11:39:54.737Z,1.40
2023-03-04T11:42:29.822Z,1.20
2023-03-04T11:44:57.087Z,1.20
2023-03-04T11:47:53.733Z,1.17
2023-03-04T11:50:55.766Z,1.50
2023-03-04T11:53:44.847Z,1.00
2023-03-04T11:56:30.615Z,1.02
2023-03-04T11:59:10.459Z,0.90
2023-03-04T12:01:54.964Z,1.25
2023-03-04T12:04:59.239Z,1.23
2023-03-04T12:07:26.384Z,1.13
2023-03-04T12:10:05.702Z,1.73
2023-03-04T12:12:44.833Z,0.98
2023-03-04T12:15:43.845Z,1.35
2023-03-04T12:18:22.577Z,1.30
2023-03-04T12:21:07.877Z,1.80
2023-03-04T12:23:57.019Z,1.30
2023-03-04T12:27:03.185Z,1.45
2023-03-04T12:29:37.335Z,1.50
2023-03-04T12:32:24.983Z,1.52
2023-03-04T12:34:52.208Z,1.27
2023-03-04T12:37:25.803Z,1.10
2023-03-04T12:39:59.039Z,1.42
2023-03-04T12:42:50.496Z,1.77
2023-03-04T12:45:36.556Z,1.20
2023-03-04T12:48:25.590Z,1.33
2023-03-04T12:50:55.861Z,1.45
2023-03-04T12:53:26.230Z,1.55
2023-03-04T12:55:55.881Z,1.70
2023-03-04T12:58:26.611Z,1.65
2023-03-04T13:01:05.282Z,1.58
2023-03-04T13:03:51.399Z,1.38
2023-03-04T13:06:33.288Z,2.17
2023-03-04T13:09:05.447Z,1.70
2023-03-04T13:11:34.585Z,2.47
2023-03-04T13:14:01.988Z,2.08
2023-03-04T13:16:32.696Z,1.60
2023-03-04T13:19:00.245Z,1.90
2023-03-04T13:21:31.813Z,1.77
2023-03-04T13:24:02.360Z,1.80
2023-03-04T13:26:30.817Z,1.52
2023-03-04T13:29:21.691Z,2.05
2023-03-04T13:32:07.255Z,1.75
2023-03-04T13:34:54.659Z,2.00
2023-03-04T13:37:31.191Z,1.70
2023-03-04T13:40:17.223Z,1.65
2023-03-04T13:42:45.079Z,1.77
2023-03-04T13:45:32.585Z,1.83
2023-03-04T13:48:00.319Z,1.50
2023-03-04T13:50:34.822Z,1.40
2023-03-04T13:53:23.843Z,1.63
2023-03-04T13:56:09.515Z,1.92
2023-03-04T13:58:37.366Z,2.33
2023-03-04T14:01:06.915Z,1.85
2023-03-04T14:03:35.716Z,1.60
2023-03-04T14:06:09.843Z,1.40
2023-03-04T14:08:37.028Z,1.65
2023-03-04T14:11:04.346Z,1.60
2023-03-04T14:13:32.242Z,1.52
2023-03-04T14:16:00.596Z,1.70
2023-03-04T14:18:29.467Z,1.40
2023-03-04T14:20:59.142Z,1.40
2023-03-04T14:23:36.383Z,1.40
2023-03-04T14:26:08.566Z,0.82
2023-03-04T14:28:42.997Z,1.92
2023-03-04T14:31:15.884Z,1.05
2023-03-04T14:33:45.364Z,1.05
2023-03-04T14:36:18.100Z,1.23
2023-03-04T14:38:47.860Z,1.67
2023-03-04T14:41:35.231Z,1.05
2023-03-04T14:44:12.538Z,1.42
2023-03-04T14:46:51.328Z,1.77
2023-03-04T14:49:24.428Z,1.55
2023-03-04T14:51:57.014Z,1.17
2023-03-04T14:54:28.774Z,1.08
2023-03-04T14:56:56.241Z,1.20
2023-03-04T14:59:34.649Z,1.02
2023-03-04T15:02:22.307Z,1.45
2023-03-04T15:04:51.920Z,1.00
2023-03-04T15:07:22.137Z,1.42
2023-03-04T15:09:53.956Z,1.20
2023-03-04T15:12:29.315Z,1.10
2023-03-04T15:14:58.657Z,1.10
2023-03-04T15:17:39.459Z,1.40
2023-03-04T15:20:06.580Z,1.00
2023-03-04T15:22:34.280Z,1.30
2023-03-04T15:25:01.763Z,1.05
2023-03-04T15:27:30.195Z,1.20
2023-03-04T15:29:59.437Z,1.08
2023-03-04T15:32:30.210Z,1.20
2023-03-04T15:34:57.844Z,1.10
2023-03-04T15:37:27.521Z,1.25
2023-03-04T15:39:56.497Z,1.38
2023-03-04T15:42:24.079Z,1.30
2023-03-04T15:44:51.210Z,1.55
2023-03-04T15:47:18.494Z,1.35
2023-03-04T15:49:48.448Z,1.23
2023-03-04T15:52:21.843Z,1.10
2023-03-04T15:54:49.397Z,1.90
2023-03-04T15:57:22.293Z,1.38
2023-03-04T15:59:49.724Z,1.40
2023-03-04T16:02:30.567Z,1.60
2023-03-04T16:04:57.780Z,1.38
2023-03-04T16:07:26.082Z,1.92
2023-03-04T16:09:56.556Z,2.00
2023-03-04T16:12:25.248Z,1.60
2023-03-04T16:14:52.931Z,1.38
2023-03-04T16:17:20.744Z,1.65
2023-03-04T16:19:50.363Z,1.30
2023-03-04T16:22:24.556Z,1.63
2023-03-04T16:24:56.085Z,1.90
2023-03-04T16:27:26.581Z,2.05
2023-03-04T16:30:06.298Z,1.70
2023-03-04T16:32:35.134Z,1.58
2023-03-04T16:35:02.992Z,1.80
2023-03-04T16:37:58.665Z,1.50
2023-03-04T16:40:30.842Z,2.20
2023-03-04T16:43:01.294Z,2.20
2023-03-04T17:00:46.520Z,2.25
2023-03-04T17:03:17.782Z,1.65
2023-03-04T17:05:55.554Z,1.92
2023-03-04T17:08:25.967Z,1.98
2023-03-04T17:16:47.426Z,1.85
2023-03-04T17:19:23.167Z,2.08
2023-03-04T18:04:35.708Z,3.03
2023-03-04T18:07:03.037Z,3.03
2023-03-04T18:09:31.512Z,2.53
2023-03-04T18:11:59.155Z,3.80
2023-03-04T18:14:26.460Z,2.15
2023-03-04T18:16:53.791Z,2.63
2023-03-04T18:19:21.122Z,2.42
2023-03-04T18:21:48.467Z,2.40
2023-03-04T18:24:15.625Z,1.90
2023-03-04T18:26:42.866Z,3.13
2023-03-04T18:29:10.261Z,2.25
2023-03-04T18:31:37.748Z,2.55
2023-03-04T18:34:05.309Z,2.40
2023-03-04T18:36:32.590Z,2.33
2023-03-04T18:39:02.245Z,2.60
2023-03-04T18:41:29.613Z,1.75
2023-03-04T18:43:56.958Z,2.63
2023-03-04T18:46:32.410Z,2.70
2023-03-04T18:49:01.491Z,2.53
2023-03-04T18:51:28.844Z,2.30
2023-03-04T18:53:56.341Z,1.73
2023-03-04T18:56:28.200Z,2.00
2023-03-04T18:58:56.532Z,3.05
2023-03-04T19:01:27.048Z,3.10
2023-03-04T19:03:55.438Z,2.20
2023-03-04T19:06:24.886Z,2.53
2023-03-04T19:08:55.218Z,1.90
2023-03-04T19:11:26.811Z,1.92
2023-03-04T19:13:54.188Z,2.97
2023-03-04T19:16:21.404Z,2.47
2023-03-04T19:18:48.834Z,2.38
2023-03-04T19:21:16.307Z,2.88
2023-03-04T19:23:43.531Z,2.53
2023-03-04T19:26:13.669Z,3.17
2023-03-04T19:28:40.983Z,2.40
2023-03-04T19:31:09.299Z,2.55
2023-03-04T19:33:37.011Z,2.45
2023-03-04T19:36:04.831Z,3.22
2023-03-04T19:38:32.746Z,2.90
2023-03-04T19:41:00.246Z,2.72
2023-03-04T19:43:27.447Z,3.38
2023-03-04T19:45:58.074Z,3.00
2023-03-04T19:48:25.385Z,2.78
2023-03-04T19:50:53.619Z,3.00
2023-03-04T19:53:20.819Z,2.53
2023-03-04T19:55:52.546Z,2.55
2023-03-04T19:58:20.047Z,2.63
2023-03-04T20:00:47.486Z,2.65
2023-03-04T20:03:14.826Z,2.40
2023-03-04T20:05:42.061Z,2.00
2023-03-04T20:08:09.302Z,2.50
2023-03-04T20:10:37.619Z,2.03
2023-03-04T20:13:05.231Z,2.75
2023-03-04T20:15:32.453Z,2.03
2023-03-04T20:17:59.642Z,2.30
2023-03-04T20:20:28.774Z,2.28
2023-03-04T20:22:57.110Z,2.40
2023-03-04T20:25:24.981Z,2.35
2023-03-04T20:27:52.182Z,2.80
2023-03-04T20:30:19.549Z,3.58
2023-03-04T20:32:46.765Z,4.43
2023-03-04T20:35:15.183Z,4.50
2023-03-04T20:37:43.040Z,3.03
2023-03-04T20:40:11.182Z,2.80
2023-03-04T20:42:38.319Z,3.30
2023-03-04T20:45:06.100Z,3.10
2023-03-04T20:47:33.475Z,3.05
2023-03-04T20:50:00.813Z,3.60
2023-03-04T20:52:28.014Z,3.70
2023-03-04T20:54:55.484Z,4.45
2023-03-04T20:57:22.750Z,3.92
2023-03-04T20:59:50.091Z,4.03
2023-03-04T21:02:19.659Z,3.85
2023-03-04T21:04:47.073Z,3.85
2023-03-04T21:07:14.312Z,2.60
2023-03-04T21:09:41.586Z,2.90
2023-03-04T21:12:08.879Z,2.80
2023-03-04T21:14:36.127Z,2.75
2023-03-04T21:17:04.872Z,3.83
2023-03-04T21:19:33.537Z,3.50
2023-03-04T21:22:01.807Z,3.47
2023-03-04T21:24:30.660Z,3.80
2023-03-04T21:26:58.225Z,3.45
2023-03-04T21:29:29.879Z,3.00
2023-03-04T21:32:02.997Z,3.25
2023-03-04T21:34:39.193Z,2.95
2023-03-04T21:37:07.067Z,2.70
2023-03-04T21:39:36.269Z,2.42
2023-03-04T21:42:03.539Z,2.40
2023-03-04T21:44:45.089Z,2.95
2023-03-04T21:47:15.279Z,3.05
2023-03-04T21:49:42.635Z,2.70
2023-03-04T21:52:09.844Z,3.00
2023-03-04T21:54:37.132Z,2.78
2023-03-04T21:57:04.247Z,2.88
2023-03-04T21:59:31.597Z,2.33
2023-03-04T22:01:59.184Z,3.05
2023-03-04T22:04:26.497Z,2.75
2023-03-04T22:06:53.807Z,2.45
2023-03-04T22:09:21.450Z,2.85
2023-03-04T22:11:48.811Z,2.20
2023-03-04T22:14:16.041Z,2.05
2023-03-04T22:16:58.984Z,2.08
2023-03-04T22:21:53.894Z,2.95
2023-03-04T22:24:21.346Z,2.67
2023-03-04T22:26:48.574Z,2.40
2023-03-04T22:29:15.956Z,2.03
2023-03-04T22:31:43.164Z,2.20
2023-03-04T22:34:12.092Z,3.05
2023-03-04T22:36:40.326Z,2.38
2023-03-04T22:39:09.243Z,2.58
2023-03-04T22:41:36.750Z,2.35
2023-03-04T22:44:05.967Z,2.20
2023-03-04T22:46:34.531Z,2.20
2023-03-04T22:49:04.661Z,2.30
2023-03-04T22:51:32.267Z,2.20
2023-03-04T22:53:59.782Z,2.25
2023-03-04T22:56:26.911Z,1.88
2023-03-04T22:58:54.482Z,2.55
2023-03-04T23:01:22.026Z,1.70
2023-03-04T23:03:49.748Z,2.30
2023-03-04T23:06:16.864Z,2.30
2023-03-04T23:08:45.062Z,2.40
2023-03-04T23:11:14.525Z,3.88
2023-03-04T23:13:42.164Z,2.42
2023-03-04T23:16:10.920Z,2.08
2023-03-04T23:18:39.171Z,2.42
2023-03-04T23:21:07.789Z,2.20
2023-03-04T23:23:35.487Z,2.28
2023-03-04T23:26:03.169Z,2.20
2023-03-04T23:28:30.355Z,1.92
2023-03-04T23:30:57.779Z,2.63
2023-03-04T23:33:25.004Z,2.22
2023-03-04T23:35:52.364Z,2.00
2023-03-04T23:38:19.911Z,2.42
2023-03-04T23:40:47.130Z,2.33
2023-03-04T23:43:14.297Z,2.35
2023-03-04T23:45:41.819Z,2.05
2023-03-04T23:48:08.977Z,3.00
2023-03-04T23:50:38.216Z,3.15
2023-03-04T23:53:05.569Z,3.30
2023-03-04T23:55:34.330Z,2.90
2023-03-04T23:58:01.603Z,3.53
